Time;durP1;ratioP1;P1;durP2;ratioP2;P2;SDS_P1;SDS_P2;PMS_P1;PMS_P2;Temp;Humidity;BMP_temperature;BMP_pressure;BME280_temperature;BME280_humidity;BME280_pressure;Samples;Min_cycle;Max_cycle;Signal;HPM_P1;HPM_P2
2023/07/18 00:01:24;;;;;;;5.40;3.07;;;;;;;13.18;100.00;101895.16;5112107;28;20126;-74
2023/07/18 00:07:11;;;;;;;4.93;3.55;;;;;;;12.86;100.00;101894.03;5113098;28;20073;-74
2023/07/18 00:09:37;;;;;;;6.50;4.30;;;;;;;12.79;100.00;101892.38;5112701;28;20059;-75
2023/07/18 00:12:03;;;;;;;10.60;4.13;;;;;;;12.84;100.00;101900.63;5111913;28;20427;-75
2023/07/18 00:14:29;;;;;;;9.75;3.55;;;;;;;12.86;100.00;101898.56;5112667;28;20035;-75
2023/07/18 00:16:55;;;;;;;7.45;3.45;;;;;;;12.84;100.00;101903.31;5094311;28;20487;-75
2023/07/18 00:19:20;;;;;;;7.70;3.88;;;;;;;12.77;100.00;101899.81;5093768;28;20067;-75
2023/07/18 00:21:47;;;;;;;6.95;3.60;;;;;;;12.76;100.00;101898.16;5112638;28;20015;-75
2023/07/18 00:24:13;;;;;;;8.80;3.85;;;;;;;12.66;100.00;101901.19;5111806;28;20094;-75
2023/07/18 00:26:38;;;;;;;6.78;3.33;;;;;;;12.60;100.00;101896.63;5112445;28;20492;-75
2023/07/18 00:32:25;;;;;;;5.30;3.47;;;;;;;12.41;100.00;101899.03;5112661;28;20070;-76
2023/07/18 00:34:56;;;;;;;6.07;3.50;;;;;;;12.31;100.00;101900.44;5093963;28;20355;-75
2023/07/18 00:37:21;;;;;;;8.48;3.70;;;;;;;12.23;100.00;101898.75;5111921;28;20092;-75
2023/07/18 00:39:47;;;;;;;10.98;3.88;;;;;;;12.27;100.00;101901.88;5112222;28;20039;-75
2023/07/18 00:42:12;;;;;;;11.93;3.88;;;;;;;12.23;100.00;101897.94;5092663;28;20040;-75
2023/07/18 00:44:38;;;;;;;6.38;4.25;;;;;;;12.23;100.00;101897.94;5112228;28;20036;-75
2023/07/18 00:47:03;;;;;;;10.50;3.97;;;;;;;12.24;100.00;101891.53;5111479;28;20027;-75
2023/07/18 00:52:55;;;;;;;7.50;3.70;;;;;;;12.27;100.00;101893.81;5112108;28;20502;-75
2023/07/18 00:55:20;;;;;;;10.15;4.45;;;;;;;12.27;100.00;101883.94;5093724;28;20035;-75
2023/07/18 00:57:47;;;;;;;6.75;4.40;;;;;;;12.30;100.00;101896.09;5093844;28;20032;-75
2023/07/18 01:00:14;;;;;;;9.70;4.70;;;;;;;12.32;100.00;101888.69;5093185;28;20042;-74
2023/07/18 01:02:42;;;;;;;5.80;3.55;;;;;;;12.33;100.00;101885.81;5111981;28;20036;-75
2023/07/18 01:05:08;;;;;;;8.15;4.28;;;;;;;12.34;100.00;101887.47;5111049;28;20044;-75
2023/07/18 01:10:56;;;;;;;11.25;4.63;;;;;;;12.17;100.00;101882.66;5111328;28;20042;-75
2023/07/18 01:13:22;;;;;;;7.45;4.22;;;;;;;12.17;100.00;101888.00;5112015;28;20027;-75
2023/07/18 01:15:47;;;;;;;10.45;5.05;;;;;;;12.19;100.00;101883.28;5093796;28;20058;-75
2023/07/18 01:18:13;;;;;;;12.15;5.03;;;;;;;12.22;100.00;101885.56;5092993;28;20067;-74
2023/07/18 01:20:39;;;;;;;6.82;4.25;;;;;;;12.21;100.00;101887.41;5111824;28;20043;-75
2023/07/18 01:23:05;;;;;;;4.70;3.10;;;;;;;12.15;100.00;101885.53;5092924;28;20116;-75
2023/07/18 01:25:31;;;;;;;9.30;3.55;;;;;;;12.13;100.00;101873.31;5111667;28;20479;-75
2023/07/18 01:27:59;;;;;;;7.70;3.90;;;;;;;12.05;100.00;101869.78;5111516;28;20122;-75
2023/07/18 01:30:25;;;;;;;6.47;4.07;;;;;;;12.10;100.00;101875.38;5092767;28;20131;-75
2023/07/18 01:32:52;;;;;;;9.30;3.90;;;;;;;12.14;100.00;101872.28;5111608;28;20059;-74
2023/07/18 01:35:20;;;;;;;7.43;4.13;;;;;;;12.11;100.00;101873.53;5092777;28;20392;-75
2023/07/18 01:37:46;;;;;;;6.05;3.65;;;;;;;12.01;100.00;101871.22;5111539;28;20482;-75
2023/07/18 01:40:13;;;;;;;8.98;4.70;;;;;;;11.96;100.00;101876.34;5092612;28;20023;-74
2023/07/18 01:42:39;;;;;;;7.82;4.20;;;;;;;11.85;100.00;101863.47;5111319;28;20043;-74
2023/07/18 01:45:05;;;;;;;7.80;4.63;;;;;;;11.86;100.00;101861.66;5111620;28;20380;-75
2023/07/18 01:47:33;;;;;;;7.30;4.07;;;;;;;11.92;100.00;101859.00;5110556;28;20169;-75
2023/07/18 01:50:04;;;;;;;9.27;5.10;;;;;;;11.94;100.00;101862.31;5093061;28;20376;-75
2023/07/18 01:52:34;;;;;;;9.02;4.70;;;;;;;11.99;100.00;101859.88;5110524;28;20156;-75
2023/07/18 01:55:00;;;;;;;8.57;4.63;;;;;;;12.03;100.00;101857.59;5095758;28;20020;-75
2023/07/18 01:57:30;;;;;;;7.03;4.38;;;;;;;12.01;100.00;101847.09;5114913;28;20027;-75
2023/07/18 01:59:55;;;;;;;6.78;3.80;;;;;;;12.00;100.00;101855.31;5095859;28;20097;-76
2023/07/18 02:02:21;;;;;;;10.57;5.13;;;;;;;11.89;100.00;101854.03;5114860;28;20020;-75
2023/07/18 02:04:46;;;;;;;8.32;5.00;;;;;;;11.80;100.00;101847.16;5095827;28;20100;-76
2023/07/18 02:07:11;;;;;;;6.78;4.20;;;;;;;11.79;100.00;101850.88;5114740;28;20023;-75
2023/07/18 02:09:37;;;;;;;8.38;5.00;;;;;;;11.76;100.00;101843.19;5096360;28;20063;-75
2023/07/18 02:12:03;;;;;;;10.65;5.30;;;;;;;11.83;100.00;101844.09;5095800;28;20149;-75
2023/07/18 02:14:28;;;;;;;5.78;4.25;;;;;;;11.80;100.00;101836.44;5114595;28;20468;-75
2023/07/18 02:16:53;;;;;;;8.88;4.60;;;;;;;11.85;100.00;101838.53;5113882;28;20043;-75
2023/07/18 02:19:19;;;;;;;8.45;4.78;;;;;;;11.83;100.00;101833.38;5114491;28;20031;-75
2023/07/18 02:21:44;;;;;;;8.80;4.95;;;;;;;11.86;100.00;101837.53;5114479;28;20019;-75
2023/07/18 02:24:10;;;;;;;7.43;4.25;;;;;;;11.84;100.00;101840.38;5113665;28;20035;-74
2023/07/18 02:26:36;;;;;;;6.30;4.53;;;;;;;11.74;100.00;101845.25;5096055;28;20111;-75
2023/07/18 02:29:01;;;;;;;9.63;5.40;;;;;;;11.68;100.00;101835.31;5113561;28;20143;-75
2023/07/18 02:31:27;;;;;;;10.90;5.30;;;;;;;11.74;100.00;101845.25;5114193;28;20468;-75
2023/07/18 02:33:52;;;;;;;9.77;5.38;;;;;;;11.74;100.00;101837.22;5095586;28;20054;-75
2023/07/18 02:36:17;;;;;;;8.88;5.38;;;;;;;11.78;100.00;101843.84;5113800;28;20062;-74
2023/07/18 02:38:43;;;;;;;8.27;5.28;;;;;;;11.79;100.00;101840.16;5114228;28;20108;-75
2023/07/18 02:41:09;;;;;;;11.23;5.75;;;;;;;11.81;100.00;101835.41;5095399;28;20039;-76
2023/07/18 02:43:34;;;;;;;11.13;5.65;;;;;;;11.79;100.00;101832.94;5114128;28;20028;-74
2023/07/18 02:45:59;;;;;;;9.20;5.40;;;;;;;11.85;100.00;101836.69;5095288;28;20100;-75
2023/07/18 02:48:25;;;;;;;9.80;5.18;;;;;;;11.74;100.00;101821.13;5113852;28;20285;-75
2023/07/18 02:50:50;;;;;;;10.70;5.25;;;;;;;11.75;100.00;101834.34;5114052;28;20189;-75
2023/07/18 02:53:16;;;;;;;7.97;5.05;;;;;;;11.76;100.00;101837.84;5095219;28;20044;-74
2023/07/18 02:55:41;;;;;;;8.63;5.00;;;;;;;11.75;100.00;101830.81;5113835;28;20050;-74
2023/07/18 02:58:07;;;;;;;11.73;5.22;;;;;;;11.79;100.00;101835.63;5094957;28;20510;-74
2023/07/18 03:00:33;;;;;;;10.40;5.30;;;;;;;11.83;100.00;101837.91;5113889;28;20349;-75
2023/07/18 03:02:59;;;;;;;9.50;4.88;;;;;;;11.84;100.00;101839.56;5113771;28;20323;-74
2023/07/18 03:05:27;;;;;;;9.35;5.10;;;;;;;11.76;100.00;101829.81;5094322;28;20404;-75
2023/07/18 03:07:54;;;;;;;14.80;5.25;;;;;;;11.77;100.00;101840.31;5095425;28;20510;-75
2023/07/18 03:10:20;;;;;;;9.32;4.70;;;;;;;11.73;100.00;101832.88;5094891;28;20127;-75
2023/07/18 03:12:46;;;;;;;8.35;4.72;;;;;;;11.71;100.00;101825.03;5113921;28;20106;-75
2023/07/18 03:15:11;;;;;;;7.20;4.88;;;;;;;11.69;100.00;101828.94;5095468;28;20020;-75
2023/07/18 03:20:58;;;;;;;8.35;4.63;;;;;;;11.64;100.00;101834.06;5113863;28;20511;-74
2023/07/18 03:23:25;;;;;;;8.93;4.22;;;;;;;11.66;100.00;101838.19;5094936;28;20044;-75
2023/07/18 03:25:51;;;;;;;5.78;4.10;;;;;;;11.62;100.00;101828.91;5095302;28;20052;-75
2023/07/18 03:28:17;;;;;;;10.23;5.40;;;;;;;11.60;100.00;101825.59;5094580;28;20381;-75
2023/07/18 03:30:43;;;;;;;9.95;4.68;;;;;;;11.61;100.00;101835.28;5113503;28;20024;-75
2023/07/18 03:33:08;;;;;;;10.40;4.50;;;;;;;11.57;100.00;101820.63;5113355;28;20027;-75
2023/07/18 03:35:34;;;;;;;5.73;4.10;;;;;;;11.64;100.00;101820.69;5112653;28;20040;-75
2023/07/18 03:37:59;;;;;;;8.68;4.65;;;;;;;11.60;100.00;101835.50;5095118;28;20777;-76
2023/07/18 03:40:24;;;;;;;10.15;4.10;;;;;;;11.63;100.00;101835.91;5112329;28;20125;-74
2023/07/18 03:42:50;;;;;;;6.43;4.13;;;;;;;11.61;100.00;101826.44;5113181;28;20019;-75
2023/07/18 03:45:16;;;;;;;5.43;3.78;;;;;;;11.65;100.00;101835.72;5112627;28;20023;-75
2023/07/18 03:47:42;;;;;;;6.53;4.47;;;;;;;11.60;100.00;101830.13;5094548;28;20036;-75
2023/07/18 03:50:10;;;;;;;7.88;4.35;;;;;;;11.58;100.00;101835.69;5094684;28;20050;-75
2023/07/18 03:52:36;;;;;;;8.65;4.18;;;;;;;11.54;100.00;101830.88;5094207;28;20036;-75
2023/07/18 03:55:03;;;;;;;11.02;4.60;;;;;;;11.55;100.00;101832.53;5094780;28;20045;-75
2023/07/18 03:57:29;;;;;;;6.35;3.92;;;;;;;11.55;100.00;101830.69;5112221;28;20024;-75
2023/07/18 03:59:55;;;;;;;7.63;4.22;;;;;;;11.60;100.00;101827.44;5112741;28;20051;-75
2023/07/18 04:02:20;;;;;;;7.97;3.72;;;;;;;11.61;100.00;101818.38;5112748;28;20388;-75
2023/07/18 04:04:45;;;;;;;8.20;4.45;;;;;;;11.60;100.00;101817.56;5111994;28;20123;-74
2023/07/18 04:07:11;;;;;;;11.38;4.60;;;;;;;11.62;100.00;101815.50;5112856;28;20421;-74
2023/07/18 04:09:36;;;;;;;7.78;4.32;;;;;;;11.65;100.00;101815.13;5093716;28;20059;-74
2023/07/18 04:12:02;;;;;;;8.77;4.63;;;;;;;11.64;100.00;101799.25;5112638;28;20028;-75
2023/07/18 04:14:27;;;;;;;6.95;3.85;;;;;;;11.67;100.00;101797.00;5094386;28;20479;-75
2023/07/18 04:16:52;;;;;;;10.30;4.20;;;;;;;11.61;100.00;101800.47;5111018;28;20062;-75
2023/07/18 04:19:19;;;;;;;11.00;4.87;;;;;;;11.65;100.00;101799.03;5094011;28;20269;-75
2023/07/18 04:21:44;;;;;;;7.35;4.22;;;;;;;11.64;100.00;101800.06;5111704;28;20335;-75
2023/07/18 04:24:10;;;;;;;11.20;4.15;;;;;;;11.75;100.00;101806.72;5094255;28;20027;-75
2023/07/18 04:26:35;;;;;;;10.45;4.03;;;;;;;11.78;100.00;101791.09;5094166;28;20536;-75
2023/07/18 04:29:06;;;;;;;6.40;4.43;;;;;;;11.86;100.00;101790.13;5111617;28;20491;-75
2023/07/18 04:31:32;;;;;;;11.13;3.95;;;;;;;12.02;100.00;101805.84;5094221;28;20115;-75
2023/07/18 04:33:57;;;;;;;7.07;4.72;;;;;;;12.03;100.00;101795.94;5093611;28;20185;-75
2023/07/18 04:36:24;;;;;;;8.55;4.10;;;;;;;12.02;100.00;101787.09;5112393;28;20648;-75
2023/07/18 04:38:49;;;;;;;7.45;4.22;;;;;;;12.07;100.00;101786.47;5094165;28;20519;-75
2023/07/18 04:41:14;;;;;;;6.82;4.22;;;;;;;12.21;100.00;101792.72;5093431;28;20031;-73
2023/07/18 04:47:02;;;;;;;7.13;4.30;;;;;;;12.71;100.00;101805.63;5112363;28;20809;-75
2023/07/18 04:49:29;;;;;;;7.18;4.00;;;;;;;12.96;100.00;101799.66;5112019;28;20027;-75
2023/07/18 04:51:54;;;;;;;10.15;4.50;;;;;;;13.19;100.00;101800.13;5111443;28;20104;-74
2023/07/18 04:54:19;;;;;;;7.85;4.38;;;;;;;13.40;100.00;101801.75;5112076;28;20472;-76
2023/07/18 04:56:44;;;;;;;9.48;4.40;;;;;;;13.62;100.00;101807.72;5093727;28;20023;-75
2023/07/18 04:59:10;;;;;;;8.10;4.32;;;;;;;13.75;100.00;101806.84;5093210;28;20185;-74
2023/07/18 05:04:57;;;;;;;5.60;3.78;;;;;;;14.07;100.00;101800.53;5112078;28;20133;-76
2023/07/18 05:07:22;;;;;;;10.90;4.10;;;;;;;14.18;100.00;101782.91;5093631;28;20023;-74
2023/07/18 05:09:48;;;;;;;10.50;4.20;;;;;;;14.39;100.00;101787.94;5092957;28;20473;-75
2023/07/18 05:12:13;;;;;;;6.45;4.18;;;;;;;14.61;100.00;101799.22;5111804;28;20020;-74
2023/07/18 05:14:39;;;;;;;7.53;3.88;;;;;;;14.93;100.00;101802.72;5111958;28;20038;-75
2023/07/18 05:17:04;;;;;;;9.35;4.50;;;;;;;15.41;100.00;101804.81;5111101;28;20067;-75
2023/07/18 05:19:30;;;;;;;7.55;3.45;;;;;;;15.76;100.00;101795.13;5111757;28;20472;-75
2023/07/18 05:21:55;;;;;;;7.57;4.45;;;;;;;16.10;100.00;101801.75;5092902;28;20046;-75
2023/07/18 05:24:20;;;;;;;10.50;3.80;;;;;;;16.56;100.00;101799.50;5111651;28;20460;-76
2023/07/18 05:26:46;;;;;;;8.50;3.73;;;;;;;16.96;100.00;101805.13;5111191;28;20277;-75
2023/07/18 05:29:11;;;;;;;7.75;4.00;;;;;;;17.42;100.00;101809.75;5094854;28;20657;-75
2023/07/18 05:31:37;;;;;;;8.17;4.13;;;;;;;17.99;100.00;101807.25;5115173;28;20031;-75
2023/07/18 05:34:02;;;;;;;10.02;4.10;;;;;;;18.20;99.53;101803.84;5114495;28;20043;-75
2023/07/18 05:36:27;;;;;;;6.40;3.33;;;;;;;18.37;99.47;101805.81;5096848;28;20484;-75
2023/07/18 05:38:52;;;;;;;6.18;3.30;;;;;;;18.66;97.36;101799.31;5096151;28;20024;-76
2023/07/18 05:41:18;;;;;;;7.37;3.33;;;;;;;19.04;94.92;101801.31;5114983;28;20380;-75
2023/07/18 05:43:43;;;;;;;5.47;3.20;;;;;;;19.28;93.68;101799.25;5115180;28;20270;-76
2023/07/18 05:46:09;;;;;;;11.67;3.77;;;;;;;19.62;90.85;101801.94;5114291;28;20040;-74
2023/07/18 05:48:35;;;;;;;9.20;3.88;;;;;;;20.00;89.43;101810.03;5096625;28;20304;-75
2023/07/18 05:51:00;;;;;;;8.68;3.45;;;;;;;20.39;87.16;101807.22;5095889;28;20480;-75
2023/07/18 05:53:26;;;;;;;13.50;3.95;;;;;;;20.92;85.22;101802.84;5096671;28;20089;-74
2023/07/18 05:55:52;;;;;;;20.88;3.80;;;;;;;21.23;83.01;101818.34;5115471;28;20019;-75
2023/07/18 05:58:17;;;;;;;13.05;3.70;;;;;;;21.33;80.05;101812.97;5114106;28;20100;-77
2023/07/18 06:00:43;;;;;;;13.23;3.83;;;;;;;21.45;79.11;101817.41;5096458;28;20027;-75
2023/07/18 06:03:08;;;;;;;6.07;3.15;;;;;;;21.72;79.00;101820.84;5095720;28;20344;-75
2023/07/18 06:05:34;;;;;;;6.93;3.50;;;;;;;21.60;76.85;101823.75;5096517;28;20051;-75
2023/07/18 06:07:59;;;;;;;8.15;3.67;;;;;;;22.06;78.32;101821.28;5114705;28;20114;-75
2023/07/18 06:10:24;;;;;;;15.88;4.13;;;;;;;22.61;74.53;101832.63;5095797;28;20100;-75
2023/07/18 06:12:50;;;;;;;5.20;3.20;;;;;;;22.94;73.04;101826.69;5114557;28;20027;-75
2023/07/18 06:15:15;;;;;;;7.78;3.25;;;;;;;23.23;70.51;101816.00;5095803;28;20649;-74
2023/07/18 06:17:40;;;;;;;7.75;3.25;;;;;;;23.45;69.21;101816.53;5114550;28;20028;-75
2023/07/18 06:20:12;;;;;;;5.63;3.73;;;;;;;23.82;69.22;101825.47;5096424;28;20028;-76
2023/07/18 06:22:37;;;;;;;6.63;3.67;;;;;;;24.50;66.83;101814.75;5095663;28;20281;-74
2023/07/18 06:25:03;;;;;;;6.18;3.10;;;;;;;24.85;64.35;101821.88;5114588;28;20028;-75
2023/07/18 06:27:28;;;;;;;6.22;3.35;;;;;;;25.27;62.61;101822.09;5095429;28;20054;-74
2023/07/18 06:29:54;;;;;;;4.80;3.03;;;;;;;25.59;60.64;101815.19;5096131;28;20388;-74
2023/07/18 06:35:42;;;;;;;3.53;2.80;;;;;;;25.86;59.71;101822.84;5114865;28;20088;-76
2023/07/18 06:38:07;;;;;;;4.88;2.63;;;;;;;26.25;58.05;101828.91;5113545;28;20052;-75
2023/07/18 06:40:32;;;;;;;7.33;2.73;;;;;;;26.67;57.52;101829.16;5113067;28;20123;-75
2023/07/18 06:42:59;;;;;;;6.47;2.93;;;;;;;27.30;55.35;101824.00;5114168;28;20039;-74
2023/07/18 06:45:24;;;;;;;6.40;2.65;;;;;;;28.05;53.02;101826.38;5095268;28;20039;-75
2023/07/18 06:51:11;;;;;;;5.35;2.20;;;;;;;28.10;49.57;101821.91;5114350;28;20042;-76
2023/07/18 06:53:37;;;;;;;3.33;1.90;;;;;;;27.67;48.41;101822.22;5114176;28;20442;-76
2023/07/18 06:56:02;;;;;;;4.03;2.28;;;;;;;27.35;49.56;101815.66;5094928;28;20411;-75
2023/07/18 06:58:28;;;;;;;4.30;2.03;;;;;;;27.65;49.33;101813.47;5113930;28;20083;-77
2023/07/18 07:00:53;;;;;;;4.03;2.37;;;;;;;28.03;47.73;101814.84;5114104;28;20027;-77
2023/07/18 07:03:18;;;;;;;6.87;2.30;;;;;;;28.15;47.64;101805.28;5113097;28;20050;-75
2023/07/18 07:05:44;;;;;;;5.83;2.47;;;;;;;28.38;47.05;101809.72;5113927;28;20418;-76
2023/07/18 07:08:10;;;;;;;4.82;2.28;;;;;;;28.67;46.14;101809.31;5094639;28;20085;-76
2023/07/18 07:10:37;;;;;;;5.65;2.25;;;;;;;29.04;44.76;101821.91;5114155;28;20027;-77
2023/07/18 07:13:03;;;;;;;3.70;1.75;;;;;;;29.26;43.20;101819.13;5095459;28;20055;-75
2023/07/18 07:15:28;;;;;;;4.82;2.05;;;;;;;29.35;43.88;101810.06;5112770;28;20130;-75
2023/07/18 07:17:53;;;;;;;9.30;2.50;;;;;;;29.95;42.83;101813.06;5095340;28;20460;-75
2023/07/18 07:20:19;;;;;;;4.90;1.90;;;;;;;30.81;39.25;101820.59;5112847;28;20039;-75
2023/07/18 07:22:47;;;;;;;4.43;1.80;;;;;;;30.95;38.47;101829.53;5113565;28;20630;-75
2023/07/18 07:25:15;;;;;;;4.22;2.00;;;;;;;31.07;38.31;101824.13;5095126;28;20093;-75
2023/07/18 07:31:03;;;;;;;2.88;1.77;;;;;;;32.32;36.39;101823.72;5113820;28;20073;-75
2023/07/18 07:33:29;;;;;;;10.02;2.35;;;;;;;32.59;34.14;101825.13;5112936;28;20466;-76
2023/07/18 07:35:54;;;;;;;4.65;1.70;;;;;;;32.45;33.39;101819.91;5113332;28;20072;-77
2023/07/18 07:38:19;;;;;;;4.95;1.55;;;;;;;32.04;33.80;101820.66;5094452;28;20174;-76
2023/07/18 07:40:45;;;;;;;4.78;1.73;;;;;;;31.72;35.02;101817.41;5095094;28;20026;-75
2023/07/18 07:43:10;;;;;;;5.03;1.90;;;;;;;31.71;35.27;101820.53;5095024;28;20038;-76
2023/07/18 07:45:35;;;;;;;3.50;1.90;;;;;;;31.97;34.20;101817.59;5094544;28;20407;-77
2023/07/18 07:48:01;;;;;;;3.80;1.80;;;;;;;32.02;34.15;101809.09;5095085;28;20039;-76
2023/07/18 07:50:26;;;;;;;4.63;1.53;;;;;;;32.16;33.35;101819.94;5112244;28;20299;-76
2023/07/18 07:52:51;;;;;;;5.97;1.63;;;;;;;31.85;34.66;101820.31;5094607;28;20293;-76
2023/07/18 07:55:17;;;;;;;6.07;2.00;;;;;;;32.27;34.59;101824.75;5112564;28;20035;-76
2023/07/18 07:57:42;;;;;;;3.70;1.52;;;;;;;33.68;32.46;101812.72;5112711;28;20567;-75
2023/07/18 08:00:08;;;;;;;3.75;1.73;;;;;;;34.21;30.90;101816.38;5112933;28;20502;-76
2023/07/18 08:02:34;;;;;;;4.95;1.70;;;;;;;34.75;29.76;101819.53;5094341;28;20051;-75
2023/07/18 08:08:21;;;;;;;5.23;1.97;;;;;;;35.32;28.03;101810.75;5113157;28;20084;-76
2023/07/18 08:10:46;;;;;;;5.63;1.67;;;;;;;35.65;28.20;101813.19;5094429;28;20273;-76
2023/07/18 08:13:14;;;;;;;4.10;1.80;;;;;;;35.41;29.03;101810.59;5112042;28;20069;-76
2023/07/18 08:15:39;;;;;;;3.72;1.52;;;;;;;35.57;28.19;101811.41;5094409;28;20334;-77
2023/07/18 08:18:04;;;;;;;4.40;1.70;;;;;;;36.20;27.69;101810.47;5113122;28;20027;-75
2023/07/18 08:20:31;;;;;;;4.13;1.70;;;;;;;35.93;27.60;101820.59;5111840;28;20082;-76
2023/07/18 08:22:57;;;;;;;6.15;1.42;;;;;;;35.86;26.76;101810.13;5112825;28;20322;-76
2023/07/18 08:25:22;;;;;;;2.25;1.27;;;;;;;34.42;27.35;101805.91;5111722;28;20123;-76
2023/07/18 08:27:47;;;;;;;2.53;1.40;;;;;;;34.05;28.97;101808.75;5112477;28;20399;-75
2023/07/18 08:30:13;;;;;;;2.60;1.30;;;;;;;33.80;27.37;101805.16;5112423;28;20067;-76
2023/07/18 08:32:40;;;;;;;3.80;1.25;;;;;;;33.35;28.87;101794.22;5093633;28;20084;-76
2023/07/18 08:35:06;;;;;;;3.47;1.10;;;;;;;32.75;29.72;101790.13;5112362;28;20047;-77
2023/07/18 08:37:31;;;;;;;2.47;0.95;;;;;;;31.34;30.16;101788.97;5111697;28;20561;-77
2023/07/18 08:39:56;;;;;;;2.27;1.10;;;;;;;30.71;32.62;101783.09;5094288;28;20502;-76
2023/07/18 08:42:26;;;;;;;3.90;1.30;;;;;;;31.66;32.65;101782.78;5094070;28;20118;-77
2023/07/18 08:44:53;;;;;;;3.03;1.50;;;;;;;32.48;29.92;101782.41;5111471;28;20049;-75
2023/07/18 08:47:21;;;;;;;2.75;1.00;;;;;;;33.30;29.73;101782.53;5112244;28;20030;-76
2023/07/18 08:49:46;;;;;;;2.33;1.35;;;;;;;33.91;28.95;101774.22;5093445;28;20039;-76
2023/07/18 08:52:11;;;;;;;1.70;0.90;;;;;;;34.79;25.78;101776.78;5094001;28;20522;-77
2023/07/18 08:54:37;;;;;;;2.08;0.80;;;;;;;35.41;25.63;101777.22;5112022;28;20024;-76
2023/07/18 08:57:03;;;;;;;2.08;0.90;;;;;;;35.46;26.08;101773.34;5093565;28;20035;-77
2023/07/18 08:59:30;;;;;;;4.82;1.40;;;;;;;35.48;27.18;101776.56;5093820;28;20034;-76
2023/07/18 09:01:55;;;;;;;3.20;1.20;;;;;;;35.44;26.29;101775.69;5111295;28;20138;-76
2023/07/18 09:04:20;;;;;;;3.53;1.07;;;;;;;36.30;24.83;101768.91;5093006;28;20115;-75
2023/07/18 09:06:54;;;;;;;3.00;1.10;;;;;;;37.19;24.99;101770.56;5093104;28;20032;-75
2023/07/18 09:09:21;;;;;;;2.55;1.10;;;;;;;37.53;23.44;101759.56;5111838;28;20762;-76
2023/07/18 09:12:13;;;;;;;1.83;0.88;;;;;;;37.31;25.18;101766.00;5093655;28;20031;-76
2023/07/18 09:14:38;;;;;;;3.05;1.50;;;;;;;36.71;24.18;101765.69;5106563;28;20051;-76
2023/07/18 09:17:06;;;;;;;2.50;1.20;;;;;;;37.10;23.73;101758.84;5111904;28;20026;-77
2023/07/18 09:19:40;;;;;;;2.22;0.95;;;;;;;37.04;24.96;101754.78;5093058;28;20476;-76
2023/07/18 09:22:10;;;;;;;4.05;1.25;;;;;;;36.40;24.23;101755.53;5093659;28;20027;-77
2023/07/18 09:24:37;;;;;;;3.85;1.30;;;;;;;35.93;24.79;101743.44;5092965;28;20028;-75
2023/07/18 09:27:13;;;;;;;3.45;1.00;;;;;;;34.99;27.04;101744.38;5093277;28;20035;-77
2023/07/18 09:29:43;;;;;;;2.17;0.88;;;;;;;35.35;25.99;101736.94;5111854;28;20063;-76
2023/07/18 09:32:17;;;;;;;3.85;1.30;;;;;;;35.93;25.10;101735.09;5110896;28;20039;-75
2023/07/18 09:34:54;;;;;;;3.28;1.20;;;;;;;34.57;25.37;101735.69;5111838;28;20027;-76
2023/07/18 09:37:20;;;;;;;3.10;1.10;;;;;;;34.42;26.68;101726.16;5111259;28;20044;-77
2023/07/18 09:39:46;;;;;;;3.25;1.10;;;;;;;34.43;26.45;101735.31;5093538;28;20475;-77
2023/07/18 09:42:12;;;;;;;2.05;1.17;;;;;;;35.18;25.55;101737.25;5093391;28;20046;-75
2023/07/18 09:44:40;;;;;;;0.95;0.77;;;;;;;35.78;24.65;101735.91;5110800;28;20488;-76
2023/07/18 09:47:06;;;;;;;2.53;1.17;;;;;;;34.75;25.60;101731.41;5111501;28;20019;-76
2023/07/18 09:49:33;;;;;;;3.55;1.50;;;;;;;32.78;26.39;101728.47;5092513;28;20044;-76
2023/07/18 09:52:06;;;;;;;1.77;1.00;;;;;;;31.47;30.14;101726.25;5093057;28;20035;-74
2023/07/18 09:54:32;;;;;;;2.95;1.25;;;;;;;30.77;30.97;101726.53;5110484;28;20044;-77
2023/07/18 09:57:06;;;;;;;3.25;1.08;;;;;;;30.57;31.40;101734.66;5093135;28;20107;-76
2023/07/18 09:59:35;;;;;;;2.25;1.02;;;;;;;30.36;32.82;101726.25;5111322;28;20039;-77
2023/07/18 10:02:05;;;;;;;4.20;1.23;;;;;;;31.42;31.75;101725.31;5092482;28;20039;-76
2023/07/18 10:04:32;;;;;;;2.03;1.10;;;;;;;30.91;31.09;101709.75;5092958;28;20373;-78
2023/07/18 10:06:57;;;;;;;2.05;1.20;;;;;;;29.57;33.23;101711.59;5110404;28;20040;-76
2023/07/18 10:09:23;;;;;;;3.38;1.23;;;;;;;28.94;34.30;101703.75;5111201;28;20031;-77
2023/07/18 10:11:57;;;;;;;3.25;1.20;;;;;;;28.76;36.40;101713.00;5092973;28;20035;-77
2023/07/18 10:14:30;;;;;;;2.10;0.98;;;;;;;29.18;37.27;101703.31;5092638;28;20106;-77
2023/07/18 10:16:59;;;;;;;2.40;1.20;;;;;;;28.77;36.34;101698.09;5113667;28;20057;-75
2023/07/18 10:19:25;;;;;;;2.35;1.30;;;;;;;28.72;34.98;101690.00;5095780;28;20453;-77
2023/07/18 10:21:56;;;;;;;2.95;1.25;;;;;;;28.72;35.74;101684.47;5114541;28;20027;-77
2023/07/18 10:24:23;;;;;;;4.30;1.42;;;;;;;28.26;34.62;101675.44;5095398;28;20450;-76
2023/07/18 10:26:51;;;;;;;2.88;1.10;;;;;;;27.70;35.76;101664.94;5114497;28;20502;-76
2023/07/18 10:29:16;;;;;;;3.13;1.58;;;;;;;27.88;35.79;101672.22;5114134;28;20035;-75
2023/07/18 10:31:42;;;;;;;2.70;1.30;;;;;;;27.54;37.84;101669.94;5095610;28;20096;-76
2023/07/18 10:34:09;;;;;;;1.92;1.10;;;;;;;28.18;36.08;101656.09;5114345;28;20019;-75
2023/07/18 10:36:35;;;;;;;1.98;1.15;;;;;;;28.96;35.42;101663.72;5113465;28;20077;-76
2023/07/18 10:39:08;;;;;;;3.50;1.33;;;;;;;29.91;34.26;101652.91;5096138;28;20040;-78
2023/07/18 10:41:35;;;;;;;2.00;1.30;;;;;;;29.90;34.53;101665.06;5114638;28;20495;-75
2023/07/18 10:47:22;;;;;;;2.28;1.10;;;;;;;29.78;33.89;101662.16;5114523;28;20054;-75
2023/07/18 10:49:48;;;;;;;2.90;1.27;;;;;;;29.80;33.16;101664.59;5095136;28;20032;-77
2023/07/18 10:52:15;;;;;;;2.95;1.30;;;;;;;29.38;33.58;101661.41;5095713;28;20504;-75
2023/07/18 10:54:53;;;;;;;2.30;1.10;;;;;;;29.22;34.88;101663.00;5113010;28;20039;-75
2023/07/18 10:57:34;;;;;;;3.17;1.30;;;;;;;29.43;34.70;101658.50;5113927;28;20505;-75
2023/07/18 11:00:05;;;;;;;2.33;1.20;;;;;;;29.87;33.31;101653.88;5113149;28;20097;-75
2023/07/18 11:02:44;;;;;;;2.53;1.52;;;;;;;29.85;33.72;101648.69;5113838;28;20059;-77
2023/07/18 11:05:11;;;;;;;2.97;1.20;;;;;;;29.30;33.90;101638.22;5113898;28;20031;-75
2023/07/18 11:07:47;;;;;;;3.35;1.50;;;;;;;28.76;35.17;101630.41;5113133;28;20481;-75
2023/07/18 11:13:36;;;;;;;3.67;1.40;;;;;;;28.62;36.76;101642.34;5114146;28;20039;-76
2023/07/18 11:16:07;;;;;;;2.30;1.17;;;;;;;29.03;35.56;101657.75;5113756;28;20455;-76
2023/07/18 11:18:37;;;;;;;5.03;1.38;;;;;;;29.32;35.24;101659.94;5094981;28;20043;-76
2023/07/18 11:21:04;;;;;;;2.65;1.35;;;;;;;29.16;33.78;101654.06;5113776;28;20057;-76
2023/07/18 11:23:31;;;;;;;2.97;1.38;;;;;;;29.42;35.94;101639.53;5094811;28;20035;-76
2023/07/18 11:25:56;;;;;;;4.10;1.30;;;;;;;28.93;34.10;101633.28;5113017;28;20515;-75
2023/07/18 11:28:21;;;;;;;3.58;1.50;;;;;;;28.88;35.31;101636.13;5094727;28;20023;-75
2023/07/18 11:30:47;;;;;;;3.15;1.23;;;;;;;29.08;35.08;101626.50;5112709;28;20047;-76
2023/07/18 11:33:15;;;;;;;4.40;1.58;;;;;;;29.08;34.47;101621.78;5113858;28;20031;-75
2023/07/18 11:35:47;;;;;;;3.00;1.00;;;;;;;30.04;33.14;101619.97;5112624;28;20039;-75
2023/07/18 11:38:16;;;;;;;3.70;1.30;;;;;;;30.74;32.95;101616.72;5113335;28;20412;-77
2023/07/18 11:40:41;;;;;;;4.00;1.35;;;;;;;30.78;32.02;101620.44;5095305;28;20078;-77
2023/07/18 11:43:16;;;;;;;1.83;1.10;;;;;;;30.18;33.39;101624.19;5112826;28;20134;-76
2023/07/18 11:45:43;;;;;;;4.82;1.75;;;;;;;29.85;32.92;101614.78;5095196;28;20110;-76
2023/07/18 11:48:09;;;;;;;2.08;1.27;;;;;;;29.65;34.53;101607.97;5094262;28;20514;-76
2023/07/18 11:53:56;;;;;;;3.10;1.05;;;;;;;31.62;31.97;101604.81;5113798;28;20062;-76
2023/07/18 11:56:22;;;;;;;3.08;1.40;;;;;;;31.32;31.80;101606.03;5094665;28;20027;-76
2023/07/18 11:58:47;;;;;;;3.85;1.70;;;;;;;30.09;33.67;101601.31;5094878;28;20028;-76
2023/07/18 12:01:12;;;;;;;4.17;1.63;;;;;;;28.77;35.11;101596.22;5112206;28;20093;-77
2023/07/18 12:03:39;;;;;;;5.03;1.38;;;;;;;28.12;37.28;101605.91;5094736;28;20642;-76